EGKB/BQH METAR and TAF weather

Enter ICAO airport designator
Station Type Date Time Source
EGKB METAR 2022/06/29 21:20 UTC NOAA

EGKB 292120Z 19007KT 170V230 CAVOK 14/11 Q1012


Station Type Date Time Source
EGKB Decoded METAR 2022/06/29 21:20 UTC NOAA

Biggin Hill , United Kingdom (EGKB) 51-19N 000-02E
Jun 29, 2022 - 05:20 PM EDT / 2022.06.29 2120 UTC
Wind: from the S (190 degrees) at 8 MPH (7 KT) (direction variable):0
Visibility: greater than 7 mile(s):0
Temperature: 57 F (14 C)
Dew Point: 51 F (11 C)
Relative Humidity: 82%
Pressure (altimeter): 29.88 in. Hg (1012 hPa)
ob: EGKB 292120Z 19007KT 170V230 CAVOK 14/11 Q1012
cycle: 21

Station Type Date Time Source
EGKB TAF 2022/06/01 22:03 UTC NOAA

TAF TAF EGKB 012257Z 0122/0222 CNL

Example: see airport list